Latest Weather Observations for King Island Airport

IDT60801

Issued at 1:31 pm EDT Wednesday 4 March 2015 (issued every 30 minutes, with the page automatically refreshed every 10 minutes)

About weather observations | Map of weather stations | Latest weather observations for TAS | Other Formats
Station Details ID: 098017 Name: KING ISLAND AIRPORT Lat: -39.88 Lon: 143.88 Height: 37.0 m
Data from the previous 72 hours. | See also: Recent months at King Island Airport
Date/Time
EDT
Temp
°C
App
Temp
°C
Dew
Point
Rel
Hum
%
Delta-T
°C
Wind Press
QNH
hPa
Press
MSL
hPa
Rain
since 9 am
mm
Dir
 
Spd
km/h
Gust
km/h
Spd
kts
Gust
kts
04/01:30pm 19.4 13.0 14.4 73 2.9 WNW 41 52 22 28 1010.4 1010.3 0.2
04/01:14pm 17.6 10.7 14.1 80 2.0 WNW 43 61 23 33 1010.7 1010.6 0.2
04/01:00pm 20.1 13.9 12.8 63 4.1 WNW 37 50 20 27 1010.8 1010.7 0.2
04/12:30pm 19.0 12.1 12.7 67 3.5 WNW 41 54 22 29 1011.4 1011.3 0.2
04/12:00pm 16.9 10.4 12.8 77 2.3 WNW 39 56 21 30 1011.6 1011.5 0.2
04/11:46am 17.0 13.1 14.5 85 1.4 W 28 46 15 25 1011.8 1011.7 0.2
04/11:31am 15.2 8.7 14.1 93 0.6 W 41 59 22 32 1012.2 1012.1 0.2
04/11:30am 15.2 8.3 13.9 92 0.7 WNW 43 59 23 32 1012.3 1012.2 0.2
04/11:26am 15.4 8.8 13.8 90 0.9 WNW 41 59 22 32 1012.2 1012.1 0.0
04/11:25am 15.4 8.3 13.4 88 1.1 WNW 43 59 23 32 1012.2 1012.1 0.0
04/11:24am 15.6 8.9 13.4 87 1.2 WNW 41 59 22 32 1012.2 1012.1 0.0
04/11:00am 18.5 11.9 11.3 63 3.9 WNW 37 48 20 26 1012.0 1011.9 0.0
04/10:30am 18.4 12.2 12.6 69 3.2 WNW 37 48 20 26 1012.2 1012.1 0.0
04/10:00am 15.9 10.6 13.2 84 1.5 WNW 33 41 18 22 1012.2 1012.1 0.0
04/09:32am 17.0 11.8 12.9 77 2.3 WNW 32 50 17 27 1012.5 1012.4 0.0
04/09:30am 17.3 12.2 13.2 77 2.3 WNW 32 39 17 21 1012.5 1012.4 0.0
04/09:00am 16.3 11.1 12.8 80 1.9 WNW 32 46 17 25 1012.6 1012.5 0.2
04/08:52am 15.5 11.0 12.6 83 1.6 WNW 28 46 15 25 1012.7 1012.6 0.2
04/08:48am 15.2 11.2 13.1 87 1.2 WNW 26 33 14 18 1012.7 1012.6 0.2
04/08:39am 14.7 10.4 13.2 91 0.8 WNW 28 46 15 25 1012.7 1012.6 0.2
04/08:31am 14.6 8.8 12.6 88 1.1 W 35 48 19 26 1012.7 1012.6 0.2
04/08:30am 14.8 9.0 12.8 88 1.1 W 35 48 19 26 1012.7 1012.6 0.0
04/08:00am 16.3 9.9 10.6 69 3.0 WNW 35 44 19 24 1012.1 1012.0 0.0
04/07:30am 15.8 10.8 11.0 73 2.6 WNW 28 37 15 20 1011.8 1011.7 0.0
04/07:06am 16.1 9.6 10.4 69 3.0 WNW 35 54 19 29 1011.9 1011.8 0.0
04/07:00am 16.1 10.0 10.6 70 2.9 WNW 33 46 18 25 1011.9 1011.8 0.0
04/06:30am 15.3 10.0 11.3 77 2.1 WNW 30 39 16 21 1012.0 1011.9 0.0
04/06:00am 14.6 8.7 11.2 80 1.8 W 33 48 18 26 1012.3 1012.2 0.0
04/05:30am 15.7 9.6 10.5 71 2.8 W 33 54 18 29 1012.4 1012.3 0.0
04/05:25am 15.7 9.2 10.2 70 2.9 W 35 54 19 29 1012.5 1012.4 0.0
04/05:00am 16.2 9.3 8.9 62 3.8 W 35 48 19 26 1012.4 1012.3 0.0
04/04:30am 15.9 9.6 8.9 63 3.6 WNW 32 43 17 23 1012.4 1012.3 0.0
04/04:05am 15.9 9.6 9.6 66 3.3 W 33 52 18 28 1012.6 1012.5 0.0
04/04:00am 16.0 9.8 9.9 67 3.2 W 33 48 18 26 1012.7 1012.6 0.0
04/03:30am 16.5 10.0 8.0 57 4.3 WNW 32 41 17 22 1013.0 1012.9 0.0
04/03:00am 16.3 10.0 9.0 62 3.8 WNW 32 48 17 26 1013.3 1013.2 0.0
04/02:30am 16.2 11.0 8.9 62 3.8 W 26 37 14 20 1013.7 1013.6 0.0
04/02:00am 16.3 10.5 9.5 64 3.5 WNW 30 39 16 21 1014.0 1013.9 0.0
04/01:30am 16.4 10.4 8.6 60 4.0 WNW 30 37 16 20 1014.3 1014.2 0.0
04/01:00am 16.1 10.4 8.3 60 4.0 WNW 28 39 15 21 1014.4 1014.3 0.0
04/12:30am 15.8 10.4 8.1 60 3.9 W 26 35 14 19 1014.9 1014.8 0.0
04/12:00am 15.6 10.0 8.6 63 3.6 W 28 37 15 20 1015.3 1015.2 0.0
 
Date/Time
EDT
Temp
°C
App
Temp
°C
Dew
Point
Rel
Hum
%
Delta-T
°C
Wind Press
QNH
hPa
Press
MSL
hPa
Rain
since 9 am
mm
Dir
 
Spd
km/h
Gust
km/h
Spd
kts
Gust
kts
03/11:30pm 15.8 10.5 8.5 62 3.7 W 26 37 14 20 1015.6 1015.5 0.0
03/11:00pm 15.8 10.7 7.8 59 4.0 W 24 35 13 19 1015.9 1015.8 0.0
03/10:30pm 15.8 10.2 7.3 57 4.2 W 26 37 14 20 1016.1 1016.0 0.0
03/10:00pm 15.6 9.6 7.1 57 4.2 W 28 37 15 20 1016.2 1016.1 0.0
03/09:30pm 15.7 9.5 7.7 59 4.0 W 30 41 16 22 1016.2 1016.1 0.0
03/09:00pm 15.9 10.8 9.1 64 3.5 W 26 35 14 19 1015.9 1015.8 0.0
03/08:30pm 16.0 11.0 8.0 59 4.0 W 24 35 13 19 1015.7 1015.6 0.0
03/08:00pm 15.9 11.1 7.4 57 4.2 W 22 32 12 17 1015.6 1015.5 0.0
03/07:30pm 15.6 10.4 7.1 57 4.2 W 24 32 13 17 1015.6 1015.5 0.0
03/07:00pm 16.5 10.4 6.6 52 4.9 W 28 46 15 25 1015.5 1015.4 0.0
03/06:58pm 16.5 10.4 6.6 52 4.9 W 28 46 15 25 1015.5 1015.4 0.0
03/06:30pm 17.0 11.1 7.4 53 4.8 W 28 43 15 23 1015.6 1015.5 0.0
03/06:00pm 17.4 12.3 9.3 59 4.2 W 26 37 14 20 1015.6 1015.5 0.0
03/05:30pm 17.5 12.3 10.1 62 3.9 W 28 37 15 20 1015.8 1015.7 0.0
03/05:00pm 18.5 13.3 10.3 59 4.4 WNW 28 35 15 19 1015.7 1015.6 0.0
03/04:30pm 17.8 14.3 10.9 64 3.7 W 20 32 11 17 1015.8 1015.7 0.0
03/04:00pm 18.1 14.5 10.7 62 4.0 WNW 20 28 11 15 1016.0 1015.9 0.0
03/03:30pm 19.0 15.6 10.6 58 4.5 WNW 19 30 10 16 1016.2 1016.1 0.0
03/03:00pm 18.3 14.8 10.2 59 4.3 W 19 28 10 15 1016.6 1016.5 0.0
03/02:30pm 18.5 15.3 9.8 57 4.6 WNW 17 26 9 14 1016.9 1016.8 0.0
03/02:00pm 18.1 14.8 9.5 57 4.5 W 17 26 9 14 1017.1 1017.0 0.0
03/01:30pm 18.6 16.0 10.7 60 4.3 WNW 15 19 8 10 1017.2 1017.1 0.0
03/01:00pm 18.0 15.7 10.6 62 4.0 W 13 22 7 12 1017.4 1017.3 0.0
03/12:30pm 18.3 15.6 10.4 60 4.2 W 15 22 8 12 1017.6 1017.5 0.0
03/12:00pm 18.1 15.7 10.2 60 4.2 W 13 24 7 13 1017.6 1017.5 0.0
03/11:30am 17.8 15.4 9.9 60 4.2 WSW 13 20 7 11 1017.6 1017.5 0.0
03/11:00am 17.4 15.3 11.0 66 3.4 WSW 13 19 7 10 1017.6 1017.5 0.0
03/10:30am 17.5 14.7 11.5 68 3.3 SW 17 22 9 12 1017.4 1017.3 0.0
03/10:00am 16.7 13.7 10.8 68 3.2 SW 17 24 9 13 1017.5 1017.4 0.0
03/09:30am 16.8 13.9 12.3 75 2.5 SW 19 22 10 12 1017.5 1017.4 0.0
03/09:00am 16.2 14.5 12.4 78 2.1 SW 13 19 7 10 1017.3 1017.2 0.2
03/08:30am 14.2 15.1 12.9 92 0.7 CALM 0 0 0 0 1017.0 1016.9 0.2
03/08:00am 14.4 15.4 13.1 92 0.7 CALM 0 0 0 0 1016.6 1016.5 0.2
03/07:30am 14.2 13.0 12.9 92 0.7 W 11 15 6 8 1016.5 1016.4 0.2
03/07:00am 14.7 13.6 11.8 83 1.6 WSW 9 19 5 10 1016.1 1016.0 0.0
03/06:30am 14.0 12.5 10.6 80 1.8 W 9 13 5 7 1015.8 1015.7 0.0
03/06:00am 14.2 12.4 10.8 80 1.8 WSW 11 15 6 8 1015.6 1015.5 0.0
03/05:30am 13.7 11.7 10.1 79 1.9 WSW 11 15 6 8 1015.7 1015.6 0.0
03/05:00am 13.8 11.8 10.2 79 1.9 WSW 11 13 6 7 1015.3 1015.2 0.0
03/04:30am 14.1 11.8 10.5 79 1.9 WSW 13 17 7 9 1015.5 1015.4 0.0
03/04:00am 14.2 12.3 10.6 79 1.9 WSW 11 13 6 7 1015.7 1015.6 0.0
03/03:30am 14.1 11.9 10.7 80 1.8 W 13 15 7 8 1015.6 1015.5 0.0
03/03:00am 13.9 11.9 10.1 78 2.0 WSW 11 13 6 7 1015.6 1015.5 0.0
03/02:30am 13.9 12.3 10.1 78 2.0 WSW 9 11 5 6 1015.8 1015.7 0.0
03/02:00am 13.4 11.6 9.6 78 1.9 SW 9 11 5 6 1015.8 1015.7 0.0
03/01:30am 13.1 11.4 9.9 81 1.6 WSW 9 9 5 5 1015.9 1015.8 0.0
03/01:00am 11.8 11.0 8.3 79 1.7 SW 2 6 1 3 1016.2 1016.1 0.0
03/12:30am 13.7 11.9 9.6 76 2.1 SW 9 11 5 6 1016.2 1016.1 0.0
03/12:00am 13.9 12.1 9.5 75 2.3 SW 9 13 5 7 1016.2 1016.1 0.0
 
Date/Time
EDT
Temp
°C
App
Temp
°C
Dew
Point
Rel
Hum
%
Delta-T
°C
Wind Press
QNH
hPa
Press
MSL
hPa
Rain
since 9 am
mm
Dir
 
Spd
km/h
Gust
km/h
Spd
kts
Gust
kts
02/11:30pm 14.4 12.3 9.8 74 2.4 WSW 11 15 6 8 1016.5 1016.4 0.0
02/11:00pm 14.8 12.8 10.2 74 2.4 WSW 11 15 6 8 1016.7 1016.6 0.0
02/10:30pm 15.2 12.7 9.8 70 2.8 WSW 13 17 7 9 1017.0 1016.9 0.0
02/10:00pm 15.1 12.7 10.1 72 2.6 WSW 13 19 7 10 1016.9 1016.8 0.0
02/09:30pm 15.5 12.8 10.3 71 2.7 WSW 15 17 8 9 1016.5 1016.4 0.0
02/09:00pm 15.8 13.7 11.0 73 2.6 W 13 17 7 9 1016.1 1016.0 0.0
02/08:30pm 15.8 14.0 10.8 72 2.7 WNW 11 13 6 7 1016.0 1015.9 0.0
02/08:00pm 16.0 14.2 10.7 71 2.8 NW 11 15 6 8 1015.8 1015.7 0.0
02/07:30pm 16.3 14.8 10.6 69 3.0 NNW 9 13 5 7 1015.6 1015.5 0.0
02/07:00pm 16.5 14.2 10.6 68 3.1 N 13 17 7 9 1015.0 1014.9 0.0
02/06:30pm 16.4 14.4 10.3 67 3.2 NW 11 17 6 9 1015.3 1015.2 0.0
02/06:00pm 16.6 14.2 10.2 66 3.4 NW 13 17 7 9 1015.3 1015.2 0.0
02/05:30pm 16.5 13.3 10.1 66 3.4 NW 17 19 9 10 1015.0 1014.9 0.0
02/05:00pm 16.6 12.8 9.8 64 3.6 NNW 20 26 11 14 1014.8 1014.7 0.0
02/04:30pm 16.9 13.1 9.8 63 3.7 NW 20 28 11 15 1015.3 1015.2 0.0
02/04:00pm 17.2 13.4 9.9 62 3.8 NW 20 28 11 15 1015.0 1014.9 0.0
02/03:30pm 17.1 11.7 9.5 61 4.0 NW 28 33 15 18 1015.6 1015.5 0.0
02/03:00pm 18.0 12.9 9.1 56 4.6 NW 26 32 14 17 1015.7 1015.6 0.0
02/02:30pm 18.2 12.7 9.0 55 4.8 NW 28 33 15 18 1016.1 1016.0 0.0
02/02:00pm 18.6 13.5 9.1 54 5.0 NW 26 33 14 18 1016.6 1016.5 0.0
02/01:30pm 18.9 13.8 9.1 53 5.1 NW 26 32 14 17 1016.8 1016.7 0.0
02/01:00pm 17.6 12.6 8.2 54 4.8 NW 24 32 13 17 1016.9 1016.8 0.0
02/12:30pm 17.1 13.5 8.3 56 4.5 NW 17 24 9 13 1017.5 1017.4 0.0
02/12:00pm 17.6 14.3 7.9 53 4.9 WNW 15 22 8 12 1018.0 1017.9 0.0
02/11:30am 16.6 12.7 7.3 54 4.6 WNW 17 26 9 14 1018.4 1018.3 0.0
02/11:00am 16.4 13.3 7.3 55 4.5 NW 13 20 7 11 1018.4 1018.3 0.0
02/10:30am 16.1 12.9 6.8 54 4.6 NW 13 20 7 11 1018.9 1018.8 0.0
02/10:00am 15.8 13.4 6.8 55 4.4 NE 9 13 5 7 1018.9 1018.8 0.0
02/09:30am 14.5 12.4 6.8 60 3.7 NNE 7 9 4 5 1019.2 1019.1 0.0
02/09:00am 12.2 11.9 8.5 78 1.8 CALM 0 0 0 0 1019.0 1018.9 0.0
02/08:30am 9.8 8.2 8.2 90 0.8 SE 6 7 3 4 1019.0 1018.9 0.0
02/08:00am 7.6 5.6 6.2 91 0.6 ESE 6 7 3 4 1018.6 1018.5 0.0
02/07:30am 6.4 4.0 5.2 92 0.5 ESE 7 9 4 5 1018.5 1018.4 0.0
02/07:00am 5.5 2.5 4.3 92 0.5 ESE 9 9 5 5 1018.4 1018.3 0.0
02/06:30am 5.6 2.6 4.2 91 0.6 ESE 9 11 5 6 1018.2 1018.1 0.0
02/06:00am 5.8 2.8 4.3 90 0.6 ESE 9 11 5 6 1018.1 1018.0 0.0
02/05:30am 6.4 3.9 4.9 90 0.7 E 7 9 4 5 1018.3 1018.2 0.0
02/05:00am 6.6 3.7 4.8 88 0.8 E 9 9 5 5 1018.2 1018.1 0.0
02/04:30am 7.6 5.3 5.6 87 0.9 E 7 9 4 5 1018.3 1018.2 0.0
02/04:00am 7.9 5.6 5.5 85 1.1 SE 7 7 4 4 1018.3 1018.2 0.0
02/03:30am 7.4 4.9 5.0 85 1.1 ESE 7 9 4 5 1018.5 1018.4 0.0
02/03:00am 8.7 5.9 5.3 79 1.5 SSE 9 11 5 6 1018.8 1018.7 0.0
02/02:30am 7.5 5.6 5.0 84 1.1 E 4 7 2 4 1019.1 1019.0 0.0
02/02:00am 8.6 7.7 6.1 84 1.1 CALM 0 0 0 0 1019.5 1019.4 0.0
02/01:30am 8.0 5.8 5.3 83 1.2 E 6 7 3 4 1019.0 1018.9 0.0
02/01:00am 8.8 7.7 5.2 78 1.6 CALM 0 0 0 0 1018.9 1018.8 0.0
02/12:30am 10.6 8.4 6.0 73 2.1 SSE 7 9 4 5 1018.9 1018.8 0.0
02/12:00am 11.0 8.1 6.4 73 2.2 SSE 11 13 6 7 1018.7 1018.6 0.0
 
Date/Time
EDT
Temp
°C
App
Temp
°C
Dew
Point
Rel
Hum
%
Delta-T
°C
Wind Press
QNH
hPa
Press
MSL
hPa
Rain
since 9 am
mm
Dir
 
Spd
km/h
Gust
km/h
Spd
kts
Gust
kts
01/11:30pm 10.9 8.0 6.5 74 2.1 SSE 11 15 6 8 1018.8 1018.7 0.0
01/11:00pm 11.1 8.3 6.8 75 2.0 S 11 13 6 7 1019.1 1019.0 0.0
01/10:30pm 11.7 9.0 7.2 74 2.2 SSE 11 15 6 8 1019.0 1018.9 0.0
01/10:00pm 12.3 9.7 7.8 74 2.2 SSE 11 15 6 8 1019.5 1019.4 0.0
01/09:30pm 12.8 9.8 7.9 72 2.4 S 13 17 7 9 1019.2 1019.1 0.0
01/09:00pm 14.1 11.7 8.5 69 2.8 S 11 17 6 9 1018.6 1018.5 0.0
01/08:30pm 14.4 11.2 8.6 68 2.9 SSW 15 20 8 11 1018.2 1018.1 0.0
01/08:00pm 14.3 10.2 8.0 66 3.1 SSW 19 22 10 12 1018.1 1018.0 0.0
01/07:30pm 15.0 10.8 7.3 60 3.8 SSW 19 26 10 14 1017.7 1017.6 0.0
01/07:00pm 15.5 10.2 6.8 56 4.3 SSW 24 33 13 18 1017.5 1017.4 0.0
01/06:30pm 16.0 10.7 7.0 55 4.4 SSW 24 32 13 17 1017.6 1017.5 0.0
01/06:00pm 16.4 10.9 7.6 56 4.4 SSW 26 35 14 19 1017.2 1017.1 0.0
01/05:30pm 16.7 11.2 7.4 54 4.7 SSW 26 37 14 20 1016.8 1016.7 0.0
01/05:00pm 17.3 10.7 7.9 54 4.8 SSW 32 39 17 21 1016.9 1016.8 0.0
01/04:30pm 16.9 10.7 7.8 55 4.6 SW 30 41 16 22 1016.7 1016.6 0.0
01/04:00pm 16.6 10.4 7.8 56 4.4 SW 30 41 16 22 1016.5 1016.4 0.0
01/03:30pm 16.8 10.1 7.4 54 4.7 SW 32 41 17 22 1016.6 1016.5 0.0
01/03:00pm 16.7 9.7 8.4 58 4.2 SW 35 44 19 24 1016.3 1016.2 0.0
01/02:30pm 16.8 9.4 8.5 58 4.2 SW 37 50 20 27 1016.0 1015.9 0.0
01/02:00pm 16.8 9.5 8.8 59 4.1 SW 37 50 20 27 1015.6 1015.5 0.0

Other Formats:

Comma delimited format used in spreadsheet applications
http://www.bom.gov.au/fwo/IDT60801/IDT60801.94850.axf

JavaScript Object Notation format (JSON) in row-major order
http://www.bom.gov.au/fwo/IDT60801/IDT60801.94850.json